createdAt,value
2023-09-06T00:00:34.210Z,100962.91
2023-09-06T00:01:37.528Z,100957.59
2023-09-06T00:02:39.923Z,100966.78
2023-09-06T00:03:42.410Z,100963.44
2023-09-06T00:04:45.079Z,100966.53
2023-09-06T00:05:47.534Z,100967.63
2023-09-06T00:06:49.981Z,100965.16
2023-09-06T00:07:52.761Z,100961.53
2023-09-06T00:08:55.128Z,100953.72
2023-09-06T00:09:57.551Z,100949.28
2023-09-06T00:11:02.577Z,100952.34
2023-09-06T00:12:05.866Z,100949.31
2023-09-06T00:13:08.941Z,100943.16
2023-09-06T00:14:12.558Z,100946.25
2023-09-06T00:15:15.604Z,100948.19
2023-09-06T00:16:18.468Z,100942.38
2023-09-06T00:17:20.891Z,100940.41
2023-09-06T00:18:24.548Z,100941.00
2023-09-06T00:19:27.090Z,100943.22
2023-09-06T00:20:30.144Z,100946.28
2023-09-06T00:21:33.746Z,100941.00
2023-09-06T00:22:36.159Z,100935.97
2023-09-06T00:23:38.520Z,100946.31
2023-09-06T00:24:40.867Z,100942.13
2023-09-06T00:25:43.321Z,100942.13
2023-09-06T00:26:46.084Z,100950.78
2023-09-06T00:27:48.575Z,100945.75
2023-09-06T00:28:51.227Z,100944.13
2023-09-06T00:29:53.567Z,100945.22
2023-09-06T00:30:59.079Z,100947.16
2023-09-06T00:32:02.007Z,100944.13
2023-09-06T00:33:07.294Z,100944.13
2023-09-06T00:34:09.788Z,100941.63
2023-09-06T00:35:12.701Z,100938.28
2023-09-06T00:36:15.090Z,100939.41
2023-09-06T00:37:17.475Z,100941.38
2023-09-06T00:38:22.827Z,100940.78
2023-09-06T00:39:29.522Z,100940.25
2023-09-06T00:40:33.104Z,100939.69
2023-09-06T00:41:41.558Z,100936.91
2023-09-06T00:42:47.872Z,100938.88
2023-09-06T00:43:50.951Z,100933.84
2023-09-06T00:44:53.351Z,100931.06
2023-09-06T00:45:55.849Z,100936.94
2023-09-06T00:47:00.872Z,100935.53
2023-09-06T00:48:06.857Z,100939.16
2023-09-06T00:49:09.399Z,100943.91
2023-09-06T00:50:12.561Z,100937.50
2023-09-06T00:51:14.922Z,100943.06
2023-09-06T00:52:18.838Z,100942.22
2023-09-06T00:53:23.397Z,100940.56
2023-09-06T00:54:25.958Z,100938.63
2023-09-06T00:55:28.452Z,100945.00
2023-09-06T00:56:32.104Z,100942.50
2023-09-06T00:57:34.517Z,100948.94
2023-09-06T00:58:38.017Z,100950.88
2023-09-06T00:59:41.376Z,100942.78
2023-09-06T01:00:49.192Z,100945.59
2023-09-06T01:01:52.046Z,100945.59
2023-09-06T01:02:54.784Z,100949.19
2023-09-06T01:03:58.576Z,100949.19
2023-09-06T01:05:01.246Z,100947.25
2023-09-06T01:06:13.572Z,100955.63
2023-09-06T01:07:16.255Z,100956.72
2023-09-06T01:08:29.378Z,100951.16
2023-09-06T01:09:32.632Z,100953.94
2023-09-06T01:10:36.049Z,100949.47
2023-09-06T01:11:40.429Z,100955.91
2023-09-06T01:12:42.975Z,100954.75
2023-09-06T01:13:47.361Z,100956.72
2023-09-06T01:14:49.865Z,100956.72
2023-09-06T01:15:53.040Z,100951.16
2023-09-06T01:16:57.417Z,100956.72
2023-09-06T01:18:03.701Z,100959.50
2023-09-06T01:19:08.120Z,100950.34
2023-09-06T01:20:30.449Z,100955.06
2023-09-06T01:21:40.121Z,100950.59
2023-09-06T01:22:49.323Z,100954.22
2023-09-06T01:23:53.054Z,100946.97
2023-09-06T01:24:56.346Z,100946.97
2023-09-06T01:25:58.821Z,100957.31
2023-09-06T01:27:02.039Z,100953.66
2023-09-06T01:28:04.919Z,100948.38
2023-09-06T01:29:07.877Z,100959.53
2023-09-06T01:30:10.728Z,100958.94
2023-09-06T01:31:13.327Z,100952.56
2023-09-06T01:32:16.406Z,100955.91
2023-09-06T01:33:19.043Z,100954.25
2023-09-06T01:34:21.415Z,100945.28
2023-09-06T01:35:23.858Z,100955.59
2023-09-06T01:36:26.850Z,100956.16
2023-09-06T01:37:29.227Z,100960.06
2023-09-06T01:38:34.234Z,100948.38
2023-09-06T01:39:37.203Z,100948.66
2023-09-06T01:40:39.667Z,100952.84
2023-09-06T01:41:42.031Z,100953.94
2023-09-06T01:42:45.577Z,100950.88
2023-09-06T01:43:48.052Z,100950.06
2023-09-06T01:44:50.715Z,100955.06
2023-09-06T01:45:53.525Z,100953.66
2023-09-06T01:46:57.362Z,100947.56
2023-09-06T01:47:59.775Z,100950.06
2023-09-06T01:49:02.200Z,100947.28
2023-09-06T01:50:05.871Z,100947.84
2023-09-06T01:51:09.980Z,100948.13
2023-09-06T01:52:12.477Z,100947.56
2023-09-06T01:53:15.975Z,100956.19
2023-09-06T01:54:18.406Z,100957.00
2023-09-06T01:55:21.824Z,100948.38
2023-09-06T01:56:24.304Z,100962.03
2023-09-06T01:57:26.813Z,100959.78
2023-09-06T01:58:34.231Z,100958.13
2023-09-06T01:59:37.236Z,100959.25
2023-09-06T02:00:40.394Z,100966.75
2023-09-06T02:01:42.982Z,100955.91
2023-09-06T02:02:45.649Z,100961.75
2023-09-06T02:03:48.344Z,100957.88
2023-09-06T02:04:52.484Z,100958.97
2023-09-06T02:05:54.834Z,100952.84
2023-09-06T02:06:57.283Z,100962.03
2023-09-06T02:08:00.359Z,100955.63
2023-09-06T02:09:02.718Z,100956.72
2023-09-06T02:10:05.587Z,100956.72
2023-09-06T02:11:08.172Z,100953.69
2023-09-06T02:12:10.641Z,100955.63
2023-09-06T02:13:13.172Z,100954.50
2023-09-06T02:14:15.654Z,100953.97
2023-09-06T02:15:18.362Z,100951.19
2023-09-06T02:16:21.011Z,100953.13
2023-09-06T02:17:26.708Z,100949.50
2023-09-06T02:18:29.441Z,100950.63
2023-09-06T02:19:31.944Z,100948.66
2023-09-06T02:20:34.752Z,100944.22
2023-09-06T02:21:39.677Z,100949.78
2023-09-06T02:22:44.964Z,100955.59
2023-09-06T02:23:47.390Z,100953.69
2023-09-06T02:24:49.822Z,100953.09
2023-09-06T02:25:52.314Z,100953.97
2023-09-06T02:26:55.385Z,100953.09
2023-09-06T02:28:08.933Z,100952.28
2023-09-06T02:29:12.626Z,100954.22
2023-09-06T02:30:15.307Z,100951.44
2023-09-06T02:31:17.782Z,100957.28
2023-09-06T02:32:20.394Z,100960.06
2023-09-06T02:33:22.890Z,100961.16
2023-09-06T02:34:25.285Z,100958.38
2023-09-06T02:35:28.537Z,100962.31
2023-09-06T02:36:30.906Z,100964.22
2023-09-06T02:37:33.387Z,100964.50
2023-09-06T02:38:35.822Z,100964.78
2023-09-06T02:39:38.453Z,100962.28
2023-09-06T02:40:44.136Z,100961.44
2023-09-06T02:41:48.163Z,100962.53
2023-09-06T02:42:52.764Z,100962.53
2023-09-06T02:43:55.211Z,100959.22
2023-09-06T02:44:57.580Z,100961.16
2023-09-06T02:46:04.590Z,100957.81
2023-09-06T02:47:10.953Z,100953.38
2023-09-06T02:48:18.341Z,100955.59
2023-09-06T02:49:20.741Z,100961.16
2023-09-06T02:50:25.778Z,100967.84
2023-09-06T02:51:30.540Z,100966.16
2023-09-06T02:52:37.159Z,100962.56
2023-09-06T02:53:45.588Z,100968.38
2023-09-06T02:54:48.983Z,100963.94
2023-09-06T02:55:55.077Z,100968.38
2023-09-06T02:56:58.718Z,100968.66
2023-09-06T02:58:01.404Z,100964.19
2023-09-06T02:59:04.841Z,100966.44
2023-09-06T03:00:21.423Z,100968.34
2023-09-06T03:01:23.833Z,100966.97
2023-09-06T03:02:26.364Z,100964.19
2023-09-06T03:03:29.827Z,100968.91
2023-09-06T03:04:39.252Z,100976.44
2023-09-06T03:05:44.920Z,100971.13
2023-09-06T03:06:51.242Z,100971.41
2023-09-06T03:07:55.199Z,100973.34
2023-09-06T03:09:00.808Z,100974.47
2023-09-06T03:10:03.750Z,100968.28
2023-09-06T03:11:08.824Z,100976.63
2023-09-06T03:12:15.722Z,100979.41
2023-09-06T03:13:21.760Z,100971.34
2023-09-06T03:14:31.611Z,100974.41
2023-09-06T03:15:35.752Z,100977.19
2023-09-06T03:16:43.728Z,100981.06
2023-09-06T03:17:48.506Z,100974.69
2023-09-06T03:18:52.648Z,100975.78
2023-09-06T03:19:55.289Z,100976.06
2023-09-06T03:20:57.684Z,100983.59
2023-09-06T03:22:06.630Z,100973.56
2023-09-06T03:23:19.709Z,100977.19
2023-09-06T03:24:26.235Z,100978.28
2023-09-06T03:25:30.214Z,100976.06
2023-09-06T03:26:32.724Z,100978.84
2023-09-06T03:27:37.415Z,100981.91
2023-09-06T03:28:43.097Z,100983.81
2023-09-06T03:29:54.229Z,100978.53
2023-09-06T03:31:00.694Z,100980.50
2023-09-06T03:32:10.600Z,100971.56
2023-09-06T03:33:14.715Z,100972.69
2023-09-06T03:34:17.262Z,100973.53
2023-09-06T03:35:23.818Z,100975.47
2023-09-06T03:36:26.317Z,100973.81
2023-09-06T03:37:32.006Z,100974.91
2023-09-06T03:38:36.309Z,100976.84
2023-09-06T03:39:42.650Z,100978.78
2023-09-06T03:40:45.809Z,100969.91
2023-09-06T03:41:49.869Z,100971.56
2023-09-06T03:42:58.470Z,100969.91
2023-09-06T03:44:00.911Z,100972.94
2023-09-06T03:45:04.550Z,100976.84
2023-09-06T03:46:08.893Z,100977.94
2023-09-06T03:47:17.484Z,100985.44
2023-09-06T03:48:22.209Z,100975.44
2023-09-06T03:50:31.620Z,100986.56
2023-09-06T03:51:34.336Z,100990.44
2023-09-06T03:52:37.674Z,100987.66
2023-09-06T03:53:40.105Z,100988.75
2023-09-06T03:54:44.932Z,100994.31
2023-09-06T03:55:47.949Z,100989.88
2023-09-06T03:56:51.254Z,100994.59
2023-09-06T03:57:54.023Z,100987.63
2023-09-06T03:58:57.270Z,100992.09
2023-09-06T04:00:00.428Z,100994.28
2023-09-06T04:01:05.277Z,100990.41
2023-09-06T04:02:15.024Z,100990.41
2023-09-06T04:03:24.388Z,100994.28
2023-09-06T04:04:30.229Z,100985.97
2023-09-06T04:05:33.911Z,100997.34
2023-09-06T04:06:38.219Z,100994.56
2023-09-06T04:07:40.732Z,100988.16
2023-09-06T04:08:44.694Z,100991.81
2023-09-06T04:09:47.204Z,100996.50
2023-09-06T04:10:50.624Z,100990.94
2023-09-06T04:11:53.619Z,100990.94
2023-09-06T04:12:56.778Z,100994.84
2023-09-06T04:13:59.893Z,101003.19
2023-09-06T04:15:04.933Z,100994.84
2023-09-06T04:16:09.002Z,100992.91
2023-09-06T04:17:13.533Z,100998.44
2023-09-06T04:18:16.120Z,100998.44
2023-09-06T04:19:18.615Z,100998.44
2023-09-06T04:20:21.137Z,100989.53
2023-09-06T04:21:23.905Z,100993.16
2023-09-06T04:22:26.272Z,100990.41
2023-09-06T04:23:28.753Z,100987.63
2023-09-06T04:24:35.343Z,100990.41
2023-09-06T04:25:46.547Z,100992.31
2023-09-06T04:26:52.563Z,100987.63
2023-09-06T04:27:58.368Z,100992.31
2023-09-06T04:29:04.204Z,100988.72
2023-09-06T04:30:08.395Z,100988.72
2023-09-06T04:31:11.128Z,100990.66
2023-09-06T04:32:18.783Z,100994.53
2023-09-06T04:33:21.405Z,100990.91
2023-09-06T04:34:31.579Z,100993.69
2023-09-06T04:35:46.014Z,100994.53
2023-09-06T04:36:49.737Z,100991.19
2023-09-06T04:37:55.437Z,100994.53
2023-09-06T04:38:59.668Z,100998.44
2023-09-06T04:40:04.242Z,100993.97
2023-09-06T04:41:06.817Z,100993.97
2023-09-06T04:42:14.930Z,100993.69
2023-09-06T04:43:18.488Z,100997.59
2023-09-06T04:44:26.041Z,100989.53
2023-09-06T04:45:29.710Z,100994.81
2023-09-06T04:46:32.294Z,100990.91
2023-09-06T04:47:39.009Z,100997.31
2023-09-06T04:48:41.920Z,100995.38
2023-09-06T04:49:48.077Z,101005.66
2023-09-06T04:50:51.734Z,101004.81
2023-09-06T04:51:54.397Z,101003.72
2023-09-06T04:52:58.109Z,101007.34
2023-09-06T04:54:01.849Z,101010.38
2023-09-06T04:55:11.771Z,100999.53
2023-09-06T04:56:14.429Z,101010.63
2023-09-06T04:57:23.295Z,101014.28
2023-09-06T04:58:25.835Z,101015.94
2023-09-06T04:59:28.789Z,101013.41
2023-09-06T05:00:34.548Z,101019.56
2023-09-06T05:01:36.937Z,101015.94
2023-09-06T05:02:39.512Z,101024.53
2023-09-06T05:03:42.196Z,101014.28
2023-09-06T05:04:45.458Z,101017.88
2023-09-06T05:05:48.862Z,101023.16
2023-09-06T05:06:52.302Z,101014.53
2023-09-06T05:07:55.119Z,101016.22
2023-09-06T05:08:58.206Z,101018.72
2023-09-06T05:10:02.401Z,101018.22
2023-09-06T05:11:04.787Z,101016.84
2023-09-06T05:12:09.309Z,101018.50
2023-09-06T05:13:13.225Z,101021.31
2023-09-06T05:14:18.046Z,101016.03
2023-09-06T05:15:21.265Z,101015.50
2023-09-06T05:16:23.805Z,101012.75
2023-09-06T05:17:26.749Z,101020.25
2023-09-06T05:18:30.313Z,101023.91
2023-09-06T05:19:34.053Z,101028.66
2023-09-06T05:20:39.429Z,101020.34
2023-09-06T05:21:46.556Z,101022.06
2023-09-06T05:22:48.955Z,101018.19
2023-09-06T05:23:51.455Z,101014.84
2023-09-06T05:24:53.890Z,101024.91
2023-09-06T05:25:57.426Z,101025.16
2023-09-06T05:27:07.728Z,101019.63
2023-09-06T05:28:13.948Z,101025.50
2023-09-06T05:29:19.932Z,101019.38
2023-09-06T05:30:22.370Z,101028.00
2023-09-06T05:31:25.012Z,101020.78
2023-09-06T05:32:29.668Z,101022.44
2023-09-06T05:33:32.643Z,101025.53
2023-09-06T05:34:36.479Z,101027.47
2023-09-06T05:35:42.629Z,101027.19
2023-09-06T05:36:45.042Z,101023.56
2023-09-06T05:37:47.494Z,101029.94
2023-09-06T05:38:49.962Z,101036.31
2023-09-06T05:39:54.378Z,101035.97
2023-09-06T05:40:58.736Z,101032.03
2023-09-06T05:42:09.090Z,101031.75
2023-09-06T05:43:11.756Z,101027.25
2023-09-06T05:44:15.329Z,101029.16
2023-09-06T05:45:19.875Z,101029.63
2023-09-06T05:46:33.237Z,101032.38
2023-09-06T05:47:42.768Z,101028.09
2023-09-06T05:48:45.548Z,101032.22
2023-09-06T05:49:49.527Z,101036.59
2023-09-06T05:50:52.241Z,101040.19
2023-09-06T05:51:55.135Z,101030.91
2023-09-06T05:52:57.741Z,101032.75
2023-09-06T05:54:01.891Z,101032.66
2023-09-06T05:55:07.020Z,101032.25
2023-09-06T05:56:10.419Z,101040.25
2023-09-06T05:57:12.794Z,101035.69
2023-09-06T05:58:16.333Z,101042.03
2023-09-06T05:59:20.696Z,101042.75
2023-09-06T06:00:24.123Z,101035.06
2023-09-06T06:01:29.752Z,101048.31
2023-09-06T06:02:33.030Z,101040.66
2023-09-06T06:03:37.624Z,101039.69
2023-09-06T06:04:41.319Z,101048.78
2023-09-06T06:05:44.241Z,101040.53
2023-09-06T06:06:46.743Z,101040.69
2023-09-06T06:07:49.215Z,101045.63
2023-09-06T06:08:51.644Z,101044.66
2023-09-06T06:09:54.119Z,101044.50
2023-09-06T06:10:57.718Z,101047.47
2023-09-06T06:12:00.232Z,101043.94
2023-09-06T06:13:05.127Z,101044.91
2023-09-06T06:14:10.902Z,101049.81
2023-09-06T06:15:14.963Z,101042.91
2023-09-06T06:16:17.569Z,101046.69
2023-09-06T06:17:20.230Z,101048.50
2023-09-06T06:18:26.915Z,101054.50
2023-09-06T06:19:29.608Z,101050.69
2023-09-06T06:20:44.095Z,101051.97
2023-09-06T06:21:47.592Z,101043.63
2023-09-06T06:22:50.060Z,101049.56
2023-09-06T06:23:52.471Z,101054.13
2023-09-06T06:24:54.946Z,101056.44
2023-09-06T06:25:57.487Z,101050.59
2023-09-06T06:26:59.894Z,101053.19
2023-09-06T06:28:02.300Z,101048.19
2023-09-06T06:29:05.440Z,101055.53
2023-09-06T06:30:09.520Z,101050.50
2023-09-06T06:31:12.601Z,101050.09
2023-09-06T06:32:15.255Z,101047.00
2023-09-06T06:33:17.732Z,101040.03
2023-09-06T06:34:20.609Z,101046.56
2023-09-06T06:35:23.055Z,101049.44
2023-09-06T06:36:25.524Z,101048.34
2023-09-06T06:37:28.413Z,101050.38
2023-09-06T06:38:31.258Z,101045.63
2023-09-06T06:39:33.939Z,101042.34
2023-09-06T06:40:38.206Z,101052.00
2023-09-06T06:41:41.707Z,101047.94
2023-09-06T06:42:46.251Z,101047.47
2023-09-06T06:43:48.726Z,101058.78
2023-09-06T06:44:51.118Z,101052.84
2023-09-06T06:45:55.431Z,101056.53
2023-09-06T06:46:57.997Z,101047.78
2023-09-06T06:48:00.497Z,101057.09
2023-09-06T06:49:05.944Z,101054.00
2023-09-06T06:50:08.712Z,101055.31
2023-09-06T06:51:11.181Z,101052.53
2023-09-06T06:52:13.562Z,101052.88
2023-09-06T06:53:16.362Z,101046.09
2023-09-06T06:54:19.270Z,101057.38
2023-09-06T06:55:21.776Z,101051.56
2023-09-06T06:56:24.950Z,101049.06
2023-09-06T06:57:27.484Z,101047.41
2023-09-06T06:58:30.012Z,101056.72
2023-09-06T06:59:32.623Z,101046.59
2023-09-06T07:00:38.021Z,101053.03
2023-09-06T07:01:40.894Z,101049.41
2023-09-06T07:02:43.273Z,101053.38
2023-09-06T07:03:45.729Z,101052.50
2023-09-06T07:04:48.912Z,101058.13
2023-09-06T07:05:51.294Z,101053.66
2023-09-06T07:06:54.758Z,101051.28
2023-09-06T07:07:57.138Z,101052.88
2023-09-06T07:08:59.789Z,101051.19
2023-09-06T07:10:02.933Z,101058.94
2023-09-06T07:11:06.422Z,101052.91
2023-09-06T07:12:08.849Z,101054.19
2023-09-06T07:13:11.215Z,101051.50
2023-09-06T07:14:13.616Z,101061.41
2023-09-06T07:15:16.137Z,101058.38
2023-09-06T07:16:21.428Z,101052.19
2023-09-06T07:17:24.041Z,101057.16
2023-09-06T07:18:26.701Z,101052.47
2023-09-06T07:19:29.173Z,101052.63
2023-09-06T07:20:31.532Z,101056.41
2023-09-06T07:21:34.002Z,101053.84
2023-09-06T07:22:36.686Z,101057.66
2023-09-06T07:23:39.611Z,101050.59
2023-09-06T07:24:42.082Z,101050.75
2023-09-06T07:25:48.306Z,101054.56
2023-09-06T07:26:50.826Z,101048.91
2023-09-06T07:27:53.286Z,101053.53
2023-09-06T07:28:55.719Z,101051.16
2023-09-06T07:29:58.357Z,101051.09
2023-09-06T07:31:01.660Z,101060.19
2023-09-06T07:32:04.711Z,101057.47
2023-09-06T07:33:07.348Z,101050.78
2023-09-06T07:34:10.028Z,101054.56
2023-09-06T07:35:13.663Z,101050.34
2023-09-06T07:36:16.194Z,101063.09
2023-09-06T07:37:18.916Z,101063.22
2023-09-06T07:38:21.318Z,101060.03
2023-09-06T07:39:23.951Z,101054.50
2023-09-06T07:40:26.362Z,101060.47
2023-09-06T07:41:28.880Z,101050.09
2023-09-06T07:42:31.272Z,101060.81
2023-09-06T07:43:36.197Z,101062.94
2023-09-06T07:44:38.766Z,101052.59
2023-09-06T07:45:44.020Z,101063.69
2023-09-06T07:46:50.213Z,101050.34
2023-09-06T07:47:53.066Z,101054.97
2023-09-06T07:48:56.344Z,101050.94
2023-09-06T07:49:58.908Z,101060.38
2023-09-06T07:51:01.514Z,101057.31
2023-09-06T07:52:06.586Z,101053.78
2023-09-06T07:53:10.869Z,101056.38
2023-09-06T07:54:13.350Z,101054.50
2023-09-06T07:55:15.733Z,101054.28
2023-09-06T07:56:18.586Z,101055.69
2023-09-06T07:57:21.096Z,101059.94
2023-09-06T07:58:24.172Z,101055.69
2023-09-06T07:59:27.053Z,101055.44
2023-09-06T08:00:31.968Z,101056.00
2023-09-06T08:01:34.519Z,101061.78
2023-09-06T08:02:37.381Z,101054.72
2023-09-06T08:03:39.927Z,101047.13
2023-09-06T08:04:47.215Z,101050.19
2023-09-06T08:05:51.586Z,101043.06
2023-09-06T08:07:02.790Z,101057.03
2023-09-06T08:08:10.693Z,101049.94
2023-09-06T08:09:14.103Z,101052.03
2023-09-06T08:10:16.707Z,101049.78
2023-09-06T08:11:19.476Z,101050.72
2023-09-06T08:12:21.913Z,101052.13
2023-09-06T08:13:24.423Z,101055.50
2023-09-06T08:14:27.341Z,101052.78
2023-09-06T08:15:30.007Z,101060.19
2023-09-06T08:16:33.616Z,101053.81
2023-09-06T08:17:36.064Z,101043.38
2023-09-06T08:18:38.523Z,101048.31
2023-09-06T08:19:41.132Z,101045.47
2023-09-06T08:20:43.550Z,101054.47
2023-09-06T08:21:45.979Z,101052.06
2023-09-06T08:22:48.476Z,101045.72
2023-09-06T08:23:51.103Z,101052.31
2023-09-06T08:24:53.464Z,101047.56
2023-09-06T08:25:56.772Z,101055.00
2023-09-06T08:26:59.776Z,101054.25
2023-09-06T08:28:02.214Z,101055.66
2023-09-06T08:29:06.555Z,101051.25
2023-09-06T08:30:14.105Z,101055.38
2023-09-06T08:31:16.785Z,101050.13
2023-09-06T08:32:19.383Z,101062.06
2023-09-06T08:33:22.003Z,101058.84
2023-09-06T08:34:24.548Z,101057.69
2023-09-06T08:35:29.174Z,101054.09
2023-09-06T08:36:31.695Z,101063.91
2023-09-06T08:37:37.937Z,101054.19
2023-09-06T08:38:43.572Z,101056.66
2023-09-06T08:39:46.141Z,101053.34
2023-09-06T08:40:48.635Z,101046.94
2023-09-06T08:41:53.189Z,101060.03
2023-09-06T08:42:56.971Z,101050.84
2023-09-06T08:44:04.909Z,101054.59
2023-09-06T08:45:11.399Z,101054.59
2023-09-06T08:46:25.346Z,101046.97
2023-09-06T08:47:29.247Z,101050.28
2023-09-06T08:48:33.519Z,101047.50
2023-09-06T08:49:38.734Z,101055.69
2023-09-06T08:50:41.985Z,101049.63
2023-09-06T08:51:45.317Z,101048.06
2023-09-06T08:52:51.881Z,101044.47
2023-09-06T08:53:55.426Z,101045.84
2023-09-06T08:54:57.791Z,101041.81
2023-09-06T08:56:01.455Z,101053.63
2023-09-06T08:57:05.109Z,101051.34
2023-09-06T08:58:07.629Z,101045.28
2023-09-06T08:59:10.571Z,101058.84
2023-09-06T09:00:15.303Z,101052.78
2023-09-06T09:01:17.785Z,101051.28
2023-09-06T09:02:20.274Z,101056.72
2023-09-06T09:03:22.841Z,101057.53
2023-09-06T09:04:25.452Z,101040.56
2023-09-06T09:05:28.026Z,101050.84
2023-09-06T09:06:30.836Z,101047.31
2023-09-06T09:07:33.480Z,101051.50
2023-09-06T09:08:36.729Z,101053.25
2023-09-06T09:10:10.047Z,101048.53
2023-09-06T09:11:13.572Z,101042.53
2023-09-06T09:12:16.294Z,101045.91
2023-09-06T09:13:18.678Z,101050.09
2023-09-06T09:14:21.634Z,101047.38
2023-09-06T09:15:27.575Z,101043.84
2023-09-06T09:16:30.513Z,101050.41
2023-09-06T09:17:37.968Z,101053.78
2023-09-06T09:18:48.977Z,101049.00
2023-09-06T09:19:53.191Z,101057.25
2023-09-06T09:20:58.712Z,101051.16
2023-09-06T09:22:09.464Z,101046.72
2023-09-06T09:23:16.175Z,101053.31
2023-09-06T09:24:31.727Z,101053.81
2023-09-06T09:25:34.448Z,101049.38
2023-09-06T09:26:37.184Z,101050.28
2023-09-06T09:27:39.577Z,101049.19
2023-09-06T09:28:43.199Z,101052.53
2023-09-06T09:29:46.168Z,101049.38
2023-09-06T09:30:49.752Z,101055.13
2023-09-06T09:31:52.218Z,101050.25
2023-09-06T09:33:00.246Z,101051.91
2023-09-06T09:34:02.847Z,101046.66
2023-09-06T09:35:05.899Z,101047.09
2023-09-06T09:36:08.658Z,101043.88
2023-09-06T09:37:11.170Z,101045.50
2023-09-06T09:38:13.688Z,101041.91
2023-09-06T09:39:16.280Z,101046.84
2023-09-06T09:40:22.530Z,101049.22
2023-09-06T09:41:24.875Z,101053.72
2023-09-06T09:42:28.112Z,101052.09
2023-09-06T09:43:31.518Z,101050.88
2023-09-06T09:44:35.037Z,101051.72
2023-09-06T09:45:45.580Z,101049.69
2023-09-06T09:46:48.073Z,101043.19
2023-09-06T09:47:53.977Z,101044.44
2023-09-06T09:49:01.315Z,101050.13
2023-09-06T09:50:04.415Z,101053.81
2023-09-06T09:51:09.312Z,101050.13
2023-09-06T09:52:15.815Z,101041.19
2023-09-06T09:53:24.584Z,101050.56
2023-09-06T09:54:32.331Z,101044.06
2023-09-06T09:55:40.165Z,101041.19
2023-09-06T09:56:48.765Z,101033.84
2023-09-06T09:57:52.802Z,101042.00
2023-09-06T09:58:56.553Z,101034.31
2023-09-06T09:59:59.548Z,101037.56
2023-09-06T10:01:05.034Z,101033.16
2023-09-06T10:02:10.589Z,101039.28
2023-09-06T10:03:14.750Z,101040.56
2023-09-06T10:04:17.693Z,101047.06
2023-09-06T10:05:21.013Z,101032.81
2023-09-06T10:06:26.230Z,101032.88
2023-09-06T10:07:46.749Z,101039.41
2023-09-06T10:08:54.610Z,101033.66
2023-09-06T10:09:57.676Z,101040.19
2023-09-06T10:11:00.353Z,101029.59
2023-09-06T10:12:05.170Z,101032.06
2023-09-06T10:13:11.058Z,101026.00
2023-09-06T10:14:16.243Z,101032.06
2023-09-06T10:15:24.860Z,101028.38
2023-09-06T10:16:27.971Z,101030.03
2023-09-06T10:17:31.275Z,101024.72
2023-09-06T10:18:34.228Z,101029.59
2023-09-06T10:19:52.391Z,101028.38
2023-09-06T10:20:57.763Z,101029.97
2023-09-06T10:22:02.823Z,101027.97
2023-09-06T10:23:09.069Z,101033.66
2023-09-06T10:24:23.925Z,101025.53
2023-09-06T10:25:27.001Z,101028.84
2023-09-06T10:26:35.649Z,101031.69
2023-09-06T10:27:52.012Z,101027.25
2023-09-06T10:29:01.952Z,101036.63
2023-09-06T10:30:07.860Z,101027.69
2023-09-06T10:31:13.918Z,101030.09
2023-09-06T10:32:16.339Z,101027.25
2023-09-06T10:33:32.613Z,101028.53
2023-09-06T10:34:35.001Z,101026.88
2023-09-06T10:35:46.696Z,101027.31
2023-09-06T10:36:58.877Z,101030.16
2023-09-06T10:38:06.054Z,101024.47
2023-09-06T10:39:15.827Z,101018.75
2023-09-06T10:40:20.364Z,101027.31
2023-09-06T10:41:28.156Z,101022.44
2023-09-06T10:42:30.688Z,101021.63
2023-09-06T10:43:55.720Z,101021.25
2023-09-06T10:45:00.506Z,101019.59
2023-09-06T10:46:05.948Z,101020.03
2023-09-06T10:47:32.357Z,101017.56
2023-09-06T10:48:35.172Z,101019.59
2023-09-06T10:49:37.653Z,101020.81
2023-09-06T10:50:40.865Z,101015.91
2023-09-06T10:52:03.067Z,101016.38
2023-09-06T10:53:07.347Z,101015.16
2023-09-06T10:54:10.772Z,101013.13
2023-09-06T10:55:16.576Z,101014.38
2023-09-06T10:56:29.428Z,101000.59
2023-09-06T10:57:51.886Z,101018.09
2023-09-06T10:58:57.849Z,101006.34
2023-09-06T11:00:00.349Z,101005.97
2023-09-06T11:01:20.022Z,100999.06
2023-09-06T11:02:23.228Z,100999.06
2023-09-06T11:03:33.382Z,101014.94
2023-09-06T11:04:36.128Z,101001.91
2023-09-06T11:05:51.679Z,101003.53
2023-09-06T11:06:54.256Z,100998.66
2023-09-06T11:07:56.824Z,101002.31
2023-09-06T11:09:06.950Z,101003.91
2023-09-06T11:10:11.061Z,100996.56
2023-09-06T11:11:15.555Z,101005.50
2023-09-06T11:12:18.763Z,101007.53
2023-09-06T11:13:21.648Z,101000.19
2023-09-06T11:14:29.601Z,100997.34
2023-09-06T11:15:36.438Z,100998.53
2023-09-06T11:16:47.566Z,100994.50
2023-09-06T11:17:50.086Z,101006.28
2023-09-06T11:18:52.549Z,100994.88
2023-09-06T11:19:55.406Z,100997.28
2023-09-06T11:20:57.905Z,100989.13
2023-09-06T11:22:11.862Z,101002.56
2023-09-06T11:23:14.250Z,100991.50
2023-09-06T11:24:16.872Z,100997.53
2023-09-06T11:25:24.332Z,100995.91
2023-09-06T11:26:28.540Z,100987.34
2023-09-06T11:27:35.173Z,100993.78
2023-09-06T11:28:39.852Z,100991.34
2023-09-06T11:29:42.735Z,100996.22
2023-09-06T11:30:48.404Z,100992.13
2023-09-06T11:31:54.240Z,100990.47
2023-09-06T11:32:58.471Z,100992.88
2023-09-06T11:34:05.971Z,100990.34
2023-09-06T11:35:10.123Z,100989.91
2023-09-06T11:36:14.255Z,100985.81
2023-09-06T11:37:20.010Z,100984.53
2023-09-06T11:38:26.772Z,100987.31
2023-09-06T11:39:30.619Z,100984.88
2023-09-06T11:40:36.243Z,100990.94
2023-09-06T11:41:40.749Z,100984.38
2023-09-06T11:42:46.988Z,100985.97
2023-09-06T11:43:55.284Z,100980.19
2023-09-06T11:44:59.579Z,100980.13
2023-09-06T11:46:05.941Z,100974.81
2023-09-06T11:47:09.626Z,100974.75
2023-09-06T11:48:16.065Z,100977.16
2023-09-06T11:49:22.902Z,100980.72
2023-09-06T11:50:26.291Z,100975.81
2023-09-06T11:51:30.071Z,100978.59
2023-09-06T11:52:36.587Z,100970.81
2023-09-06T11:53:55.728Z,100971.94
2023-09-06T11:54:59.670Z,100965.78
2023-09-06T11:56:02.297Z,100972.25
2023-09-06T11:57:06.156Z,100967.34
2023-09-06T11:58:17.755Z,100966.44
2023-09-06T11:59:21.692Z,100968.03
2023-09-06T12:00:38.281Z,100967.19
2023-09-06T12:01:42.239Z,100965.50
2023-09-06T12:02:49.193Z,100964.56
2023-09-06T12:03:54.648Z,100973.50
2023-09-06T12:05:02.526Z,100972.63
2023-09-06T12:06:08.724Z,100968.88
2023-09-06T12:07:11.179Z,100966.41
2023-09-06T12:08:19.152Z,100965.56
2023-09-06T12:09:22.338Z,100967.13
2023-09-06T12:10:24.850Z,100967.50
2023-09-06T12:11:28.776Z,100973.88
2023-09-06T12:12:41.023Z,100965.72
2023-09-06T12:13:43.374Z,100960.81
2023-09-06T12:14:45.907Z,100972.09
2023-09-06T12:15:48.908Z,100966.78
2023-09-06T12:16:51.419Z,100970.84
2023-09-06T12:17:53.891Z,100968.38